Tiempo atmosférico en la estación meteorológica de Castejon De Valdejasa, Zaragoza (442 m.)



Fecha
DESCASC
Temp. máxima en grados centígrados (hora)
DESCASC
Temp. mínima en grados centígrados (hora)
DESCASC
Temp. media en grados centígrados
DESCASC
Racha de viento máxima en m/sg (hora)
DESCASC
Velocidad máxima media en intervalos de 10 minutos(hora)
DESCASC
Precipitaciones diarias en mm
DESCASC
Precipitaciones de 00:00 a 06:00 en mm
DESCASC
Precipitaciones de 06:00 a 12:00 en mm
DESCASC
Precipitaciones de 12:00 a 18:00 en mm
DESCASC
Precipitaciones de 18:00 a 24:00 en mm
DESCASC
25-04-2019 14 (13:50) 8.3 (05:40) 11.2 12.5 (02:30) 8.61 (02:30) 10.4 8.6 0 1.8 0
24-04-2019 13.4 (22:20) 5.9 (07:10) 9.6 15.83 (18:00) 10.83 (18:00) 4.2 0.4 0 0 3.8
23-04-2019 17.8 (12:40) 8.9 (23:59) 13.3 16.67 (19:40) 9.17 (19:40) 0.8 0 0 0.8 0
22-04-2019 15.7 (17:10) 6.9 (00:00) 11.3 10 (23:40) 6.67 (23:30) 0 0 0 0 0
21-04-2019 12.4 (18:30) 7.6 (00:00) 10 10 (00:10) 5.28 (00:20) 1.4 1.4 0 0 0
20-04-2019 21.8 (14:30) 10 (00:00) 15.9 13.89 (20:40) 7.78 (19:20) 0 0 0 0 0
19-04-2019 18.2 (17:00) 9.4 (00:00) 13.8 20.56 (14:30) 15.28 (14:30) 2.8 2.6 0.2 0 0
18-04-2019 16.1 (17:30) 8.8 (00:00) 12.5 19.44 (19:10) 13.33 (19:10) 0 0 0 0 0
17-04-2019 18.5 (17:10) 8.1 (00:00) 13.3 18.61 (17:30) 13.33 (10:30) 0 0 0 0 0
16-04-2019 19.6 (17:50) 7.7 (00:00) 13.7 11.39 (22:30) 7.78 (22:30) 0.8 0.8 0 0 0
15-04-2019 20 (16:30) 9.3 (00:00) 14.7 18.61 (17:30) 13.33 (19:10) 3.6 0 0 0 3.6
14-04-2019 21.7 (17:40) 9 (00:00) 15.4 15.28 (16:50) 8.61 (15:10) 0 0 0 0 0
13-04-2019 20.6 (17:40) 1.9 (00:00) 11.3 9.17 (16:30) 6.11 (16:30) 0 0 0 0 0
12-04-2019 16.1 (17:00) 4.3 (07:10) 10.2 15 (16:30) 8.89 (13:00) 0 0 0 0 0
11-04-2019 13.1 (15:30) 5.8 (00:00) 9.5 16.11 (14:20) 9.72 (15:00) 0 0 0 0 0
10-04-2019 13.8 (15:00) 5.6 (00:00) 9.7 14.72 (14:20) 9.17 (14:20) 0 0 0 0 0
09-04-2019 15.3 (15:20) 5.2 (00:00) 10.3 12.22 (15:40) 8.61 (15:40) 7.4 7 0 0.4 0
08-04-2019 17.4 (15:50) 7 (00:00) 12.2 7.22 (19:00) 4.44 (15:20) 0.4 0.2 0.2 0 0
07-04-2019 13.3 (17:40) 4.4 (00:00) 8.9 13.06 (10:40) 8.06 (14:20) 3.4 3.4 0 0 0
06-04-2019 11.9 (16:50) 3.2 (00:00) 7.5 11.11 (19:20) 6.67 (16:00) 4 4 0 0 0
05-04-2019 10.7 (12:50) 4 (00:00) 7.3 12.78 (05:00) 9.44 (04:10) 15.2 0 0 6 9.2
04-04-2019 12.8 (17:50) -0.3 (00:00) 6.3 -- (--) -- (--) 0 0 0 0 0
03-04-2019 8.8 (00:00) 3 (22:10) 5.9 -- (--) -- (--) 1.2 0 0.6 0.2 0.4
02-04-2019 17.3 (17:20) 6.4 (00:00) 11.8 10.28 (17:40) 6.67 (17:00) 0 0 0 0 0
01-04-2019 14.5 (18:20) 6.8 (00:00) 10.7 6.11 (13:20) 4.17 (13:20) 8 5.2 2.2 0 0.6
31-03-2019 12.8 (15:30) 4.3 (00:00) 8.6 9.72 (01:20) 7.5 (01:20) 0 0 0 0 0
30-03-2019 18.3 (15:40) 5.3 (00:00) 11.8 12.5 (03:10) 10 (03:10) 0 0 0 0 0
29-03-2019 18.4 (15:30) 5.7 (00:00) 12 14.17 (17:40) 10 (17:30) 0 0 0 0 0
28-03-2019 17.6 (17:20) 1.6 (00:00) 9.6 8.61 (00:40) 5.83 (00:10) 0 0 0 0 0
27-03-2019 18.5 (17:20) 0.9 (00:00) 9.7 -- (--) -- (--) 0 0 0 0 0

Gráficas

Temp. máximas Temp. mínimas Temp. medias Precipitaciones Rachas de viento máximas Velocidades máximas media en intervalos de 10 minutos

Datos horarios

Fecha y hora oficial Temperatura (ºC) Velocidad del viento (km/h) Dirección del viento Racha (km/h) Dirección de racha Precipitación (mm) Presión (hPa) Tendencia (hPa) Humedad (%)
2019-04-25 23:00:00 8.8 18 Oeste 23 Oeste 0 -- -- 72
2019-04-25 22:00:00 9.3 4 Oeste 9 Oeste 0 -- -- 70
2019-04-25 21:00:00 10.6 8 Sudoeste 39 Oeste 0 -- -- 64
2019-04-25 20:00:00 12.2 21 Sudoeste 28 Sudoeste 0 -- -- 56
2019-04-25 19:00:00 13.4 21 Oeste 30 Oeste 0 -- -- 54
2019-04-25 18:00:00 11.2 14 Sudoeste 29 Oeste 0 -- -- 61
2019-04-25 17:00:00 11.5 21 Oeste 43 Oeste 0 -- -- 63
2019-04-25 16:00:00 12 30 Sudoeste 45 Oeste 0.2 -- -- 62
2019-04-25 15:00:00 11.4 17 Oeste 40 Oeste 1.4 -- -- 65
2019-04-25 14:00:00 13.3 16 Oeste 30 Oeste 0 -- -- 60
2019-04-25 13:00:00 10.9 10 Oeste 38 Oeste 0.2 -- -- 73
2019-04-25 12:00:00 13.9 14 Sur 31 Sur 0 -- -- 56
2019-04-25 11:00:00 12.5 15 Sudoeste 24 Sudoeste 0 -- -- 62
2019-04-25 10:00:00 10.3 9 Oeste 16 Oeste 0 -- -- 67
2019-04-25 09:00:00 9.2 12 Oeste 27 Oeste 0 -- -- 74
2019-04-25 08:00:00 8.5 12 Oeste 22 Sur 0 -- -- 82
2019-04-25 07:00:00 8.4 9 Noroeste 26 Oeste 0 -- -- 83
2019-04-25 06:00:00 8.4 3 Sudoeste 27 Oeste 0.4 -- -- 91
2019-04-25 05:00:00 8.6 17 Noroeste 41 Noroeste 7.8 -- -- 90
2019-04-25 04:00:00 9.8 18 Este 35 Este 0.2 -- -- 92
2019-04-25 03:00:00 10.3 22 Este 45 Este 0 -- -- 89
2019-04-25 02:00:00 10.1 15 Este 23 Este 0 -- -- 92
2019-04-25 01:00:00 10.3 11 Sudeste 28 Sudeste 0.2 -- -- 89
2019-04-25 00:00:00 9.5 10 Este 31 Oeste 1.8 -- -- 92
2019-04-24 23:00:00 11.2 25 Oeste 50 Oeste 1.8 -- -- 88
2019-04-24 22:00:00 12.1 19 Sudeste 38 Este 0 -- -- 73
2019-04-24 21:00:00 10.3 25 Este 47 Este 0 -- -- 79
2019-04-24 20:00:00 9.6 31 Este 44 Este 0 -- -- 83
2019-04-24 19:00:00 9.3 31 Este 53 Este 0.2 -- -- 87
2019-04-24 18:00:00 9.8 39 Este 57 Este 0 -- -- 80
2019-04-24 17:00:00 9.8 35 Este 51 Este 0 -- -- 74
2019-04-24 16:00:00 11.1 30 Este 46 Este 0 -- -- 61
2019-04-24 15:00:00 11.5 24 Este 44 Este 0 -- -- 67
2019-04-24 14:00:00 8.7 25 Este 36 Este 0 -- -- 75
2019-04-24 13:00:00 8.9 10 Sur 33 Sudeste 0 -- -- 67
2019-04-24 12:00:00 9.2 18 Sudeste 32 Sudeste 0 -- -- 58
2019-04-24 11:00:00 8.5 14 Sudoeste 35 Sudoeste 0 -- -- 62
2019-04-24 10:00:00 8.4 22 Sudoeste 41 Sur 0 -- -- 63
2019-04-24 09:00:00 7.7 24 Sudoeste 38 Sudoeste 0 -- -- 68
2019-04-24 08:00:00 6 4 Sudoeste 13 Sur 0 -- -- 80
2019-04-24 07:00:00 6 3 Este 13 Oeste 0 -- -- 82
2019-04-24 06:00:00 6.5 5 Oeste 13 Oeste 0.2 -- -- 82
2019-04-24 05:00:00 6.6 8 Oeste 13 Oeste 0.2 -- -- 85
2019-04-24 04:00:00 6.7 0 Calma 5 Este 0 -- -- 79
2019-04-24 03:00:00 7.3 0 Calma 10 Oeste 0 -- -- 72
2019-04-24 02:00:00 8.2 4 Oeste 10 Oeste 0 -- -- 69
2019-04-24 01:00:00 8.2 7 Oeste 17 Oeste 0 -- -- 69
2019-04-24 00:00:00 8.9 3 Sudoeste 23 Sudoeste 0 -- -- 64
2019-04-23 23:00:00 10.4 19 Sudoeste 33 Sudoeste 0 -- -- 57
2019-04-23 22:00:00 11.4 21 Sudoeste 33 Sudoeste 0 -- -- 55
2019-04-23 21:00:00 10.8 18 Sudoeste 27 Sudoeste 0 -- -- 59
2019-04-23 20:00:00 10.8 17 Sudoeste 60 Sudoeste 0 -- -- 66
2019-04-23 19:00:00 13.7 5 Sur 12 Este 0 -- -- 62
2019-04-23 18:00:00 13.9 6 Sudeste 23 Sudoeste 0.2 -- -- 64
2019-04-23 17:00:00 14.4 14 Sudoeste 32 Sudoeste 0 -- -- 63
2019-04-23 16:00:00 14.4 12 Sur 30 Sudeste 0 -- -- 76
2019-04-23 15:00:00 14.5 14 Sudeste 31 Sur 0.6 -- -- 73
2019-04-23 14:00:00 15.8 17 Sur 27 Sudeste 0 -- -- 59
2019-04-23 13:00:00 17.4 16 Este 26 Sudeste 0 -- -- 56
2019-04-23 12:00:00 15.9 17 Sudeste 29 Este 0 -- -- 63
2019-04-23 11:00:00 15.1 17 Sudeste 35 Este 0 -- -- 66
2019-04-23 10:00:00 12.1 24 Este 35 Sudeste 0 -- -- 78
2019-04-23 09:00:00 11.4 21 Este 39 Sudeste 0 -- -- 81
2019-04-23 08:00:00 9.9 21 Este 32 Este 0 -- -- 86
2019-04-23 07:00:00 9.9 21 Este 30 Este 0 -- -- 85
2019-04-23 06:00:00 9.8 19 Este 27 Este 0 -- -- 85
2019-04-23 05:00:00 10 19 Este 33 Este 0 -- -- 84
2019-04-23 04:00:00 11 19 Este 39 Este 0 -- -- 80
2019-04-23 03:00:00 11 23 Este 35 Sudeste 0 -- -- 78
2019-04-23 02:00:00 11.5 20 Sudeste 42 Sudeste 0 -- -- 78
2019-04-23 01:00:00 11.2 18 Sudeste 36 Sudeste 0 -- -- 78
2019-04-23 00:00:00 11.8 18 Sudeste 36 Sudeste 0 -- -- 71
2019-04-22 23:00:00 12.6 15 Este 21 Sudeste 0 -- -- 66
2019-04-22 22:00:00 13.1 8 Sudeste 16 Este 0 -- -- 65
2019-04-22 21:00:00 13.8 5 Este 10 Este 0 -- -- 62
2019-04-22 20:00:00 14.3 5 Sur 14 Sudoeste 0 -- -- 60
2019-04-22 19:00:00 14.9 6 Sur 14 Sur 0 -- -- 56
2019-04-22 18:00:00 15.5 10 Sudoeste 17 Oeste 0 -- -- 53
2019-04-22 17:00:00 15.5 12 Oeste 18 Oeste 0 -- -- 53
2019-04-22 16:00:00 14.7 12 Oeste 19 Oeste 0 -- -- 62
2019-04-22 15:00:00 14.5 13 Oeste 20 Oeste 0 -- -- 65
2019-04-22 14:00:00 13.6 8 Oeste 15 Oeste 0 -- -- 70
2019-04-22 13:00:00 12.9 9 Oeste 15 Oeste 0 -- -- 72
2019-04-22 12:00:00 12.3 9 Oeste 12 Sudeste 0 -- -- 74
2019-04-22 11:00:00 11.8 3 Este 9 Sudoeste 0 -- -- 76
2019-04-22 10:00:00 10.3 5 Sudoeste 8 Oeste 0 -- -- 81
2019-04-22 09:00:00 8.7 0 Calma 6 Este 0 -- -- 89
2019-04-22 08:00:00 7.3 3 Este 6 Este 0 -- -- 90
2019-04-22 07:00:00 7.1 0 Calma 6 Este 0 -- -- 90
2019-04-22 06:00:00 7.2 3 Este 6 Este 0 -- -- 88
2019-04-22 05:00:00 7.9 4 Este 6 Nordeste 0 -- -- 87
2019-04-22 04:00:00 8.5 3 Este 9 Este 0 -- -- 84
2019-04-22 03:00:00 9.2 3 Este 7 Sudeste 0 -- -- 82
2019-04-22 02:00:00 9.9 3 Este 5 Este 0 -- -- 79
2019-04-22 01:00:00 10.6 0 Calma 4 Este 0 -- -- 76
2019-04-22 00:00:00 11 0 Calma 6 Sur 0 -- -- 73
2019-04-21 23:00:00 11.2 4 Oeste 8 Noroeste 0 -- -- 71
2019-04-21 22:00:00 11.4 7 Noroeste 10 Noroeste 0 -- -- 71
2019-04-21 21:00:00 11.8 8 Noroeste 14 Noroeste 0 -- -- 70
2019-04-21 20:00:00 11.9 4 Oeste 6 Oeste 0 -- -- 78
2019-04-21 19:00:00 12.3 0 Calma 12 Oeste 0 -- -- 71
2019-04-21 18:00:00 12.3 7 Oeste 13 Oeste 0 -- -- 73
2019-04-21 17:00:00 11.9 3 Sudoeste 13 Oeste 0 -- -- 75
2019-04-21 16:00:00 11.6 3 Oeste 13 Oeste 0 -- -- 79
2019-04-21 15:00:00 11.4 12 Oeste 18 Oeste 0 -- -- 83
2019-04-21 14:00:00 10.9 13 Oeste 17 Oeste 0 -- -- 87
2019-04-21 13:00:00 10.6 8 Oeste 14 Oeste 0 -- -- 89
2019-04-21 12:00:00 10.2 9 Oeste 13 Sudoeste 0 -- -- 90
2019-04-21 11:00:00 9.2 6 Oeste 10 Oeste 0 -- -- 94
2019-04-21 10:00:00 8.2 3 Sudoeste 7 Oeste 0 -- -- 95
2019-04-21 09:00:00 7.9 4 Oeste 8 Oeste 0 -- -- 95
2019-04-21 08:00:00 7.7 3 Oeste 9 Oeste 0 -- -- 94
2019-04-21 07:00:00 7.7 3 Noroeste 9 Nordeste 0 -- -- 93
2019-04-21 06:00:00 7.7 5 Sudoeste 16 Nordeste 0.2 -- -- 93
2019-04-21 05:00:00 8 7 Nordeste 19 Nordeste 0 -- -- 92
2019-04-21 04:00:00 8.1 9 Este 14 Este 0.2 -- -- 90
2019-04-21 03:00:00 8.2 6 Este 10 Este 0.8 -- -- 90
2019-04-21 02:00:00 8.5 5 Este 30 Este 0.2 -- -- 87
2019-04-21 01:00:00 8.8 17 Sudeste 36 Sudeste 0 -- -- 83
2019-04-21 00:00:00 10 19 Sudeste 37 Sudeste 0 -- -- 71
2019-04-20 23:00:00 10.3 16 Sudeste 34 Sudeste 0 -- -- 74
2019-04-20 22:00:00 11.3 14 Sudeste 42 Sudeste 0 -- -- 69
2019-04-20 21:00:00 12.6 19 Sudeste 50 Sudeste 0 -- -- 61
2019-04-20 20:00:00 15.8 21 Este 40 Este 0 -- -- 47
2019-04-20 19:00:00 17.4 25 Este 41 Este 0 -- -- 39
2019-04-20 18:00:00 17.9 21 Este 37 Este 0 -- -- 35
2019-04-20 17:00:00 19.2 23 Este 40 Este 0 -- -- 36
2019-04-20 16:00:00 -- 23 Sudeste 39 Sudeste 0 -- -- --
2019-04-20 15:00:00 20.3 22 Sudeste 37 Sudeste 0 -- -- 28
2019-04-20 14:00:00 21.1 13 Sudeste 35 Este 0 -- -- 29
2019-04-20 13:00:00 20.2 8 Sudeste 22 Sudeste 0 -- -- 36
2019-04-20 12:00:00 19 10 Sudeste 20 Sudeste 0 -- -- 37
2019-04-20 11:00:00 17.7 10 Sudeste 24 Este 0 -- -- 38
2019-04-20 10:00:00 15.4 11 Este 19 Este 0 -- -- 42
2019-04-20 09:00:00 12.6 15 Este 20 Este 0 -- -- 47
2019-04-20 08:00:00 11 14 Este 27 Este 0 -- -- 49
2019-04-20 07:00:00 11.1 19 Este 26 Este 0 -- -- 48
2019-04-20 06:00:00 11.8 20 Este 27 Este 0 -- -- 45
2019-04-20 05:00:00 11.9 10 Este 19 Nordeste 0 -- -- 48
2019-04-20 04:00:00 12.2 7 Este 22 Nordeste 0 -- -- 49
2019-04-20 03:00:00 12 11 Este 19 Nordeste 0 -- -- 51
2019-04-20 02:00:00 13.5 13 Nordeste 23 Nordeste 0 -- -- 47
2019-04-20 01:00:00 12.7 10 Este 16 Nordeste 0 -- -- 52
2019-04-20 00:00:00 13.7 8 Nordeste 13 Nordeste 0 -- -- 48
2019-04-19 23:00:00 14 4 Nordeste 20 Este 0 -- -- 51
2019-04-19 22:00:00 14.9 9 Este 36 Este 0 -- -- 50
2019-04-19 21:00:00 16 20 Este 44 Este 0 -- -- 48
2019-04-19 20:00:00 17 32 Este 50 Este 0 -- -- 45
2019-04-19 19:00:00 17.6 30 Este 53 Este 0 -- -- 45
2019-04-19 18:00:00 17.8 33 Este 58 Este 0 -- -- 45
2019-04-19 17:00:00 18.2 32 Este 54 Este 0 -- -- 48
2019-04-19 16:00:00 16.7 37 Este 59 Este 0 -- -- 52
2019-04-19 15:00:00 16.5 42 Este 74 Este 0 -- -- 52
2019-04-19 14:00:00 17.1 45 Este 71 Este 0 -- -- 50
2019-04-19 13:00:00 15.6 42 Este 66 Este 0 -- -- 55
2019-04-19 12:00:00 15.2 36 Este 69 Este 0 -- -- 57
2019-04-19 11:00:00 15 41 Este 69 Este 0 -- -- 58
2019-04-19 10:00:00 13.4 37 Este 51 Este 0 -- -- 60
2019-04-19 09:00:00 12.3 34 Este 60 Este 0 -- -- 60
2019-04-19 08:00:00 11.7 30 Este 48 Este 0 -- -- 64
2019-04-19 07:00:00 11.3 30 Este 46 Este 0.2 -- -- 67
2019-04-19 06:00:00 10.6 27 Este 39 Sudeste 0 -- -- 73
2019-04-19 05:00:00 9.6 18 Este 26 Este 0.8 -- -- 83
2019-04-19 04:00:00 9.8 18 Este 43 Este 1 -- -- 81
2019-04-19 03:00:00 10.4 33 Este 60 Este 0.6 -- -- 76
2019-04-19 02:00:00 11.3 37 Este 68 Este 0.2 -- -- 68
2019-04-19 01:00:00 13.1 46 Este 63 Este 0 -- -- 56
2019-04-19 00:00:00 13.5 31 Este 43 Este 0 -- -- 61
2019-04-18 23:00:00 13.9 27 Este 55 Este 0 -- -- 59
2019-04-18 22:00:00 14.4 39 Este 55 Este 0 -- -- 53
2019-04-18 21:00:00 14.8 37 Este 55 Este 0 -- -- 56
2019-04-18 20:00:00 15.4 31 Este 70 Este 0 -- -- 53
2019-04-18 19:00:00 15.7 44 Este 64 Este 0 -- -- 51
2019-04-18 18:00:00 16 40 Este 59 Este 0 -- -- 50
2019-04-18 17:00:00 15.6 36 Este 58 Este 0 -- -- 51
2019-04-18 16:00:00 15.8 39 Este 65 Este 0 -- -- 49
2019-04-18 15:00:00 15.2 44 Este 67 Este 0 -- -- 52
2019-04-18 14:00:00 15.3 40 Este 66 Este 0 -- -- 50
2019-04-18 13:00:00 15.3 28 Este 47 Este 0 -- -- 56
2019-04-18 12:00:00 13.2 30 Este 54 Este 0 -- -- 68
2019-04-18 11:00:00 11 37 Este 56 Este 0 -- -- 78
2019-04-18 10:00:00 10.5 34 Este 47 Este 0 -- -- 82
2019-04-18 09:00:00 10.3 19 Este 45 Este 0 -- -- 85
2019-04-18 08:00:00 8.9 32 Este 49 Este 0 -- -- 90
2019-04-18 07:00:00 9 37 Este 53 Este 0 -- -- 88
2019-04-18 06:00:00 9.4 35 Este 49 Este 0 -- -- 86
2019-04-18 05:00:00 9.5 31 Este 46 Este 0 -- -- 87
2019-04-18 04:00:00 9.9 29 Este 43 Este 0 -- -- 86
2019-04-18 03:00:00 10.2 35 Este 55 Este 0 -- -- 83
2019-04-18 02:00:00 10.4 38 Este 59 Este 0 -- -- 77
2019-04-18 01:00:00 10.8 42 Este 59 Este 0 -- -- 72
2019-04-18 00:00:00 11.4 26 Este 63 Este 0 -- -- 72
2019-04-17 23:00:00 12.8 42 Este 61 Este 0 -- -- 68
2019-04-17 22:00:00 14.2 45 Este 58 Este 0 -- -- 62
2019-04-17 21:00:00 15 42 Este 60 Sudeste 0 -- -- 60
2019-04-17 20:00:00 15.8 37 Este 62 Este 0 -- -- 59
2019-04-17 19:00:00 16.8 40 Este 58 Este 0 -- -- 57
2019-04-17 18:00:00 17.6 43 Este 67 Este 0 -- -- 55
2019-04-17 17:00:00 18.4 45 Este 60 Este 0 -- -- 55
2019-04-17 16:00:00 17.4 35 Este 63 Este 0 -- -- 57
2019-04-17 15:00:00 17.3 44 Este 63 Este 0 -- -- 55
2019-04-17 14:00:00 16.2 41 Este 62 Este 0 -- -- 60
2019-04-17 13:00:00 15.1 39 Este 62 Este 0 -- -- 63
2019-04-17 12:00:00 13.4 44 Este 61 Este 0 -- -- 65
2019-04-17 11:00:00 12.8 34 Este 64 Este 0 -- -- 70
2019-04-17 10:00:00 12 33 Este 52 Este 0 -- -- 72
2019-04-17 09:00:00 10 33 Este 55 Este 0 -- -- 79
2019-04-17 08:00:00 8.6 19 Nordeste 47 Este 0 -- -- 87
2019-04-17 07:00:00 8.4 32 Este 49 Este 0 -- -- 88
2019-04-17 06:00:00 8.3 36 Este 57 Este 0 -- -- 88
2019-04-17 05:00:00 8.2 36 Este 52 Este 0 -- -- 86
2019-04-17 04:00:00 8.3 35 Este 47 Este 0 -- -- 85
2019-04-17 03:00:00 8.7 35 Este 47 Este 0 -- -- 74
2019-04-17 02:00:00 9.3 37 Este 51 Este 0 -- -- 66
2019-04-17 01:00:00 10.5 32 Este 43 Este 0 -- -- 64
2019-04-17 00:00:00 12.1 26 Este 39 Este 0 -- -- 66
2019-04-16 23:00:00 13 23 Este 41 Este 0 -- -- 62
2019-04-16 22:00:00 14.5 24 Este 33 Este 0 -- -- 62
2019-04-16 21:00:00 15.6 17 Este 27 Este 0 -- -- 55
2019-04-16 20:00:00 16.8 12 Este 21 Sudeste 0 -- -- 49
2019-04-16 19:00:00 18.5 12 Sudeste 29 Sudeste 0 -- -- 39
2019-04-16 18:00:00 19.5 7 Este 15 Oeste 0 -- -- 43
2019-04-16 17:00:00 17.9 9 Oeste 16 Oeste 0 -- -- 50
2019-04-16 16:00:00 18.8 5 Oeste 20 Oeste 0 -- -- 48
2019-04-16 15:00:00 17.5 12 Oeste 22 Oeste 0 -- -- 51
2019-04-16 14:00:00 16.2 14 Oeste 21 Sudoeste 0 -- -- 55
2019-04-16 13:00:00 14.8 15 Oeste 27 Oeste 0 -- -- 58
2019-04-16 12:00:00 13.4 19 Oeste 29 Oeste 0 -- -- 66
2019-04-16 11:00:00 12.3 16 Oeste 27 Oeste 0 -- -- 74
2019-04-16 10:00:00 10.6 15 Oeste 26 Oeste 0 -- -- 82
2019-04-16 09:00:00 9 15 Oeste 26 Oeste 0 -- -- 89
2019-04-16 08:00:00 7.8 6 Oeste 23 Oeste 0 -- -- 95
2019-04-16 07:00:00 8.3 6 Oeste 15 Oeste 0 -- -- 95
2019-04-16 06:00:00 8 11 Oeste 14 Oeste 0 -- -- 94
2019-04-16 05:00:00 8.7 10 Oeste 14 Oeste 0 -- -- 89
2019-04-16 04:00:00 8.6 5 Nordeste 9 Este 0 -- -- 88
2019-04-16 03:00:00 8.8 8 Nordeste 13 Noroeste 0.2 -- -- 89
2019-04-16 02:00:00 9.1 8 Noroeste 21 Noroeste 0.6 -- -- 85
2019-04-16 01:00:00 9.8 10 Nordeste 26 Este 0 -- -- 81
2019-04-16 00:00:00 10.1 14 Este 28 Nordeste 0 -- -- 78
2019-04-15 23:00:00 10.2 22 Nordeste 30 Nordeste 0 -- -- 83
2019-04-15 22:00:00 11.3 12 Nordeste 49 Este 1.2 -- -- 78
2019-04-15 21:00:00 11.5 34 Este 57 Este 0.2 -- -- 80
2019-04-15 20:00:00 12.7 33 Este 63 Este 2.2 -- -- 80
2019-04-15 19:00:00 15.9 43 Este 63 Este 0 -- -- 57
2019-04-15 18:00:00 18.1 41 Este 67 Este 0 -- -- 54
2019-04-15 17:00:00 18.4 43 Este 63 Este 0 -- -- 54
2019-04-15 16:00:00 19 43 Este 64 Este 0 -- -- 53
2019-04-15 15:00:00 18.9 39 Este 57 Este 0 -- -- 51
2019-04-15 14:00:00 18.3 35 Este 58 Este 0 -- -- 54
2019-04-15 13:00:00 17 39 Este 55 Este 0 -- -- 58
2019-04-15 12:00:00 15.3 35 Este 47 Este 0 -- -- 69
2019-04-15 11:00:00 13 26 Este 38 Este 0 -- -- 80
2019-04-15 10:00:00 11.3 25 Este 39 Este 0 -- -- 85
2019-04-15 09:00:00 11 19 Este 31 Este 0 -- -- 86
2019-04-15 08:00:00 10 19 Este 26 Este 0 -- -- 87
2019-04-15 07:00:00 9.4 14 Nordeste 18 Este 0 -- -- 90
2019-04-15 06:00:00 10.4 10 Nordeste 18 Este 0 -- -- 87
2019-04-15 05:00:00 10.3 9 Nordeste 17 Nordeste 0 -- -- 84
2019-04-15 04:00:00 11.4 7 Este 12 Este 0 -- -- 84
2019-04-15 03:00:00 11.1 4 Nordeste 13 Nordeste 0 -- -- 82
2019-04-15 02:00:00 12.4 4 Noroeste 13 Oeste 0 -- -- 81
2019-04-15 01:00:00 12.2 8 Oeste 15 Oeste 0 -- -- 81
2019-04-15 00:00:00 13.1 10 Oeste 15 Noroeste 0 -- -- 76
2019-04-14 23:00:00 14 10 Noroeste 15 Oeste 0 -- -- 72
2019-04-14 22:00:00 15.2 9 Oeste 19 Noroeste 0 -- -- 67
2019-04-14 21:00:00 16.6 11 Noroeste 32 Noroeste 0 -- -- 62
2019-04-14 20:00:00 18.5 13 Noroeste 34 Noroeste 0 -- -- 55
2019-04-14 19:00:00 20.4 22 Noroeste 39 Noroeste 0 -- -- 49
2019-04-14 18:00:00 21.5 19 Noroeste 41 Noroeste 0 -- -- 45
2019-04-14 17:00:00 21 24 Oeste 55 Oeste 0 -- -- 44
2019-04-14 16:00:00 21 27 Oeste 48 Oeste 0 -- -- 43
2019-04-14 15:00:00 20.3 28 Oeste 47 Oeste 0 -- -- 43
2019-04-14 14:00:00 19.2 23 Oeste 42 Oeste 0 -- -- 44
2019-04-14 13:00:00 17.8 23 Noroeste 39 Oeste 0 -- -- 43
2019-04-14 12:00:00 16.5 19 Oeste 37 Noroeste 0 -- -- 43
2019-04-14 11:00:00 14.9 16 Oeste 27 Oeste 0 -- -- 43
2019-04-14 10:00:00 13.1 12 Oeste 17 Oeste 0 -- -- 47
2019-04-14 09:00:00 10.6 9 Oeste 12 Oeste 0 -- -- 51
2019-04-14 08:00:00 9.2 4 Oeste 14 Noroeste 0 -- -- 47
2019-04-14 07:00:00 9.6 9 Oeste 12 Oeste 0 -- -- 46
2019-04-14 06:00:00 9.5 2 Noroeste 5 Noroeste 0 -- -- 45
2019-04-14 05:00:00 9.2 0 Calma 7 Este 0 -- -- 41
2019-04-14 04:00:00 9.3 6 Este 9 Nordeste 0 -- -- 38
2019-04-14 03:00:00 9.9 5 Este 6 Este 0 -- -- 33
2019-04-14 02:00:00 9.5 0 Calma 7 Nordeste 0 -- -- 33
2019-04-14 01:00:00 11 8 Este 13 Este 0 -- -- 28
2019-04-14 00:00:00 11.3 9 Nordeste 14 Nordeste 0 -- -- 27
2019-04-13 23:00:00 12 10 Nordeste 12 Nordeste 0 -- -- 26
2019-04-13 22:00:00 13.7 5 Norte 11 Noroeste 0 -- -- 21
2019-04-13 21:00:00 17.4 10 Noroeste 17 Noroeste 0 -- -- 15
2019-04-13 20:00:00 19.5 14 Oeste 28 Oeste 0 -- -- 14
2019-04-13 19:00:00 19.9 16 Oeste 28 Oeste 0 -- -- 14
2019-04-13 18:00:00 20.4 19 Oeste 33 Oeste 0 -- -- 14
2019-04-13 17:00:00 20.1 19 Oeste 33 Oeste 0 -- -- 18
2019-04-13 16:00:00 19.3 19 Oeste 32 Oeste 0 -- -- 23
2019-04-13 15:00:00 17.6 19 Oeste 28 Oeste 0 -- -- 28
2019-04-13 14:00:00 15.3 17 Oeste 26 Sur 0 -- -- 42
2019-04-13 13:00:00 13.6 17 Oeste 25 Sudoeste 0 -- -- 41
2019-04-13 12:00:00 11.6 19 Oeste 24 Oeste 0 -- -- 45
2019-04-13 11:00:00 9.3 14 Oeste 19 Sudoeste 0 -- -- 55
2019-04-13 10:00:00 6.8 10 Oeste 14 Oeste 0 -- -- 69
2019-04-13 09:00:00 4.5 3 Este 8 Nordeste 0 -- -- 82
2019-04-13 08:00:00 2.4 4 Nordeste 9 Nordeste 0 -- -- 84
2019-04-13 07:00:00 2.9 5 Este 8 Este 0 -- -- 82
2019-04-13 06:00:00 3 4 Este 7 Este 0 -- -- 83
2019-04-13 05:00:00 3.8 5 Este 7 Este 0 -- -- 81
2019-04-13 04:00:00 4.1 3 Este 6 Oeste 0 -- -- 80
2019-04-13 03:00:00 5.1 7 Oeste 13 Oeste 0 -- -- 77
2019-04-13 02:00:00 5.1 5 Oeste 10 Oeste 0 -- -- 80
2019-04-13 01:00:00 5.6 8 Oeste 14 Oeste 0 -- -- 79
2019-04-13 00:00:00 6.2 11 Oeste 15 Oeste 0 -- -- 76
2019-04-12 23:00:00 7.4 10 Oeste 21 Oeste 0 -- -- 72
2019-04-12 22:00:00 9.1 13 Oeste 30 Oeste 0 -- -- 64
2019-04-12 21:00:00 11.2 15 Oeste 36 Noroeste 0 -- -- 56
2019-04-12 20:00:00 13.6 26 Oeste 43 Oeste 0 -- -- 47
2019-04-12 19:00:00 15.2 25 Oeste 43 Oeste 0 -- -- 42
2019-04-12 18:00:00 15.6 29 Oeste 48 Oeste 0 -- -- 39
2019-04-12 17:00:00 16.1 26 Oeste 54 Oeste 0 -- -- 38
2019-04-12 16:00:00 15.6 28 Oeste 46 Oeste 0 -- -- 37
2019-04-12 15:00:00 15.2 26 Oeste 42 Oeste 0 -- -- 40
2019-04-12 14:00:00 14.3 26 Oeste 48 Oeste 0 -- -- 45
2019-04-12 13:00:00 13.1 32 Oeste 45 Oeste 0 -- -- 50
2019-04-12 12:00:00 -- 25 Oeste 44 Oeste 0 -- -- --
2019-04-12 11:00:00 10.6 22 Oeste 37 Noroeste 0 -- -- 64
2019-04-12 10:00:00 8.1 19 Oeste 30 Oeste 0 -- -- 78
2019-04-12 09:00:00 5.9 19 Oeste 26 Oeste 0 -- -- 89
2019-04-12 08:00:00 4.5 15 Oeste 23 Oeste 0 -- -- 93
2019-04-12 07:00:00 4.4 14 Oeste 27 Oeste 0 -- -- 92
2019-04-12 06:00:00 4.5 14 Oeste 29 Oeste 0 -- -- 91
2019-04-12 05:00:00 4.8 14 Oeste 26 Oeste 0 -- -- 90
2019-04-12 04:00:00 5.7 15 Oeste 36 Noroeste 0 -- -- 87
2019-04-12 03:00:00 5.2 21 Oeste 34 Oeste 0 -- -- 87
2019-04-12 02:00:00 5.5 15 Oeste 32 Oeste 0 -- -- 84
2019-04-12 01:00:00 6.2 19 Oeste 31 Oeste 0 -- -- 81
2019-04-12 00:00:00 6.8 20 Oeste 39 Oeste 0 -- -- 76
2019-04-11 23:00:00 7.5 26 Noroeste 49 Noroeste 0 -- -- 71
2019-04-11 22:00:00 8.3 27 Noroeste 48 Noroeste 0 -- -- 70
2019-04-11 21:00:00 9.3 25 Noroeste 40 Noroeste 0 -- -- 68
2019-04-11 20:00:00 10.7 29 Noroeste 55 Noroeste 0 -- -- 58
2019-04-11 19:00:00 11.9 27 Noroeste 54 Noroeste 0 -- -- 55
2019-04-11 18:00:00 12.4 32 Noroeste 54 Noroeste 0 -- -- 55
2019-04-11 17:00:00 12.9 20 Noroeste 50 Noroeste 0 -- -- 56
2019-04-11 16:00:00 13 30 Noroeste 57 Noroeste 0 -- -- 55
2019-04-11 15:00:00 12.4 35 Noroeste 58 Oeste 0 -- -- 58
2019-04-11 14:00:00 12.6 27 Noroeste 57 Oeste 0 -- -- 58
2019-04-11 13:00:00 11.7 27 Noroeste 48 Noroeste 0 -- -- 60
2019-04-11 12:00:00 10.1 26 Oeste 54 Oeste 0 -- -- 68
2019-04-11 11:00:00 9.2 29 Oeste 52 Oeste 0 -- -- 70
2019-04-11 10:00:00 8 26 Noroeste 51 Noroeste 0 -- -- 75
2019-04-11 09:00:00 6.6 20 Noroeste 41 Noroeste 0 -- -- 79
2019-04-11 08:00:00 6 19 Noroeste 41 Noroeste 0 -- -- 81
2019-04-11 07:00:00 5.8 22 Oeste 41 Noroeste 0 -- -- 83
2019-04-11 06:00:00 6 19 Noroeste 36 Oeste 0 -- -- 83
2019-04-11 05:00:00 6.2 23 Noroeste 48 Noroeste 0 -- -- 81
2019-04-11 04:00:00 6.3 27 Noroeste 43 Noroeste 0 -- -- 80
2019-04-11 03:00:00 6.3 18 Noroeste 38 Norte 0 -- -- 81
2019-04-11 02:00:00 6.3 16 Oeste 31 Oeste 0 -- -- 81
2019-04-11 01:00:00 6.8 15 Oeste 34 Oeste 0 -- -- 77
2019-04-11 00:00:00 7.4 22 Noroeste 46 Noroeste 0 -- -- 74
2019-04-10 23:00:00 7.8 24 Noroeste 41 Noroeste 0 -- -- 74
2019-04-10 22:00:00 9 27 Noroeste 41 Noroeste 0 -- -- 67
2019-04-10 21:00:00 10 21 Noroeste 36 Noroeste 0 -- -- 61
2019-04-10 20:00:00 11.6 19 Noroeste 36 Noroeste 0 -- -- 55
2019-04-10 19:00:00 13 19 Noroeste 39 Oeste 0 -- -- 52
2019-04-10 18:00:00 13.6 19 Noroeste 40 Oeste 0 -- -- 52
2019-04-10 17:00:00 12.9 23 Oeste 38 Oeste 0 -- -- 52
2019-04-10 16:00:00 12.8 26 Noroeste 49 Oeste 0 -- -- 60
2019-04-10 15:00:00 13.8 26 Oeste 53 Oeste 0 -- -- 62
2019-04-10 14:00:00 12.3 29 Oeste 49 Oeste 0 -- -- 67
2019-04-10 13:00:00 11.1 26 Oeste 44 Oeste 0 -- -- 69
2019-04-10 12:00:00 10.1 26 Oeste 46 Oeste 0 -- -- 75
2019-04-10 11:00:00 8.8 30 Oeste 44 Oeste 0 -- -- 76
2019-04-10 10:00:00 6.9 24 Oeste 42 Oeste 0 -- -- 79
2019-04-10 09:00:00 6.7 21 Oeste 34 Oeste 0 -- -- 78
2019-04-10 08:00:00 5.8 18 Oeste 32 Oeste 0 -- -- 83
2019-04-10 07:00:00 6.2 15 Oeste 32 Noroeste 0 -- -- 80
2019-04-10 06:00:00 6.6 20 Noroeste 36 Noroeste 0 -- -- 77
2019-04-10 05:00:00 6.4 21 Noroeste 34 Noroeste 0 -- -- 79
2019-04-10 04:00:00 6.1 18 Oeste 32 Noroeste 0 -- -- 83
2019-04-10 03:00:00 5.8 19 Oeste 32 Oeste 0 -- -- 87
2019-04-10 02:00:00 6.1 15 Noroeste 36 Oeste 0 -- -- 88
2019-04-10 01:00:00 6.6 23 Oeste 36 Oeste 0 -- -- 92
2019-04-10 00:00:00 6.9 24 Oeste 43 Oeste 0 -- -- 90
2019-04-09 23:00:00 7.8 19 Oeste 36 Oeste 0 -- -- 83
2019-04-09 22:00:00 8.9 22 Noroeste 36 Noroeste 0 -- -- 75
2019-04-09 21:00:00 9.2 14 Noroeste 32 Noroeste 0 -- -- 72
2019-04-09 20:00:00 10.6 22 Oeste 36 Oeste 0 -- -- 69
2019-04-09 19:00:00 12.7 14 Oeste 27 Oeste 0 -- -- 56
2019-04-09 18:00:00 13.2 18 Noroeste 30 Noroeste 0 -- -- 55
2019-04-09 17:00:00 10.6 14 Norte 34 Oeste 0.4 -- -- 61
2019-04-09 16:00:00 12.4 10 Sur 44 Sudoeste 0 -- -- 57
2019-04-09 15:00:00 13.9 13 Oeste 28 Noroeste 0 -- -- 51
2019-04-09 14:00:00 13.6 14 Oeste 31 Oeste 0 -- -- 58
2019-04-09 13:00:00 12.6 13 Oeste 25 Oeste 0 -- -- 60
2019-04-09 12:00:00 11.6 16 Oeste 31 Oeste 0 -- -- 66
2019-04-09 11:00:00 10.1 21 Oeste 33 Oeste 0 -- -- 71
2019-04-09 10:00:00 8.9 16 Oeste 22 Oeste 0 -- -- 77
2019-04-09 09:00:00 6.3 4 Este 6 Este 0 -- -- 94
2019-04-09 08:00:00 5.3 0 Calma 4 Nordeste 0 -- -- 92
2019-04-09 07:00:00 5.5 2 Nordeste 6 Este 0 -- -- 92
2019-04-09 06:00:00 6.5 0 Calma 6 Nordeste 0 -- -- 91
2019-04-09 05:00:00 7 5 Nordeste 10 Norte 0 -- -- 90
2019-04-09 04:00:00 7.2 5 Este 12 Nordeste 0 -- -- 90
2019-04-09 03:00:00 8 2 Este 18 Oeste 0.4 -- -- 84
2019-04-09 02:00:00 7.8 8 Nordeste 26 Noroeste 6.6 -- -- 81
2019-04-09 01:00:00 8 4 Este 8 Este 0 -- -- 82
2019-04-09 00:00:00 8.8 0 Calma 8 Este 0 -- -- 77
2019-04-08 23:00:00 8.6 5 Este 8 Nordeste 0 -- -- 75
2019-04-08 22:00:00 10 4 Este 8 Este 0 -- -- 73
2019-04-08 21:00:00 12.2 5 Noroeste 15 Noroeste 0 -- -- 64
2019-04-08 20:00:00 14.4 8 Oeste 25 Oeste 0 -- -- 57
2019-04-08 19:00:00 15.6 11 Noroeste 26 Noroeste 0 -- -- 55
2019-04-08 18:00:00 15.2 8 Noroeste 25 Noroeste 0 -- -- 56
2019-04-08 17:00:00 15.6 12 Noroeste 24 Oeste 0 -- -- 57
2019-04-08 16:00:00 16.4 11 Nordeste 24 Oeste 0 -- -- 58
2019-04-08 15:00:00 15.4 9 Sudoeste 22 Sudoeste 0 -- -- 60
2019-04-08 14:00:00 14.7 10 Sudoeste 20 Sudoeste 0 -- -- 60
2019-04-08 13:00:00 13.6 6 Oeste 12 Sudeste 0 -- -- 66
2019-04-08 12:00:00 11.8 6 Este 16 Este 0.2 -- -- 73
2019-04-08 11:00:00 9.4 12 Este 19 Este 0 -- -- 86
2019-04-08 10:00:00 8.3 12 Este 19 Este 0 -- -- 87
2019-04-08 09:00:00 7.5 15 Este 20 Este 0 -- -- 88
2019-04-08 08:00:00 7.1 10 Este 16 Este 0 -- -- 88
2019-04-08 07:00:00 7.4 10 Este 13 Este 0 -- -- 86
2019-04-08 06:00:00 7.7 0 Calma 7 Sur 0.2 -- -- 82
2019-04-08 05:00:00 7.8 5 Sudoeste 17 Oeste 0 -- -- 81
2019-04-08 04:00:00 8.3 12 Sudoeste 22 Sudoeste 0 -- -- 74
2019-04-08 03:00:00 8.9 9 Sudoeste 19 Sur 0 -- -- 67
2019-04-08 02:00:00 9.2 4 Sudoeste 14 Sudoeste 0 -- -- 61
2019-04-08 01:00:00 8.9 9 Nordeste 13 Este 0 -- -- 61
2019-04-08 00:00:00 7.9 10 Nordeste 14 Este 0 -- -- 67
2019-04-07 23:00:00 7.7 9 Nordeste 12 Nordeste 0 -- -- 71
2019-04-07 22:00:00 8.6 8 Nordeste 10 Nordeste 0 -- -- 66
2019-04-07 21:00:00 9.9 6 Este 9 Noroeste 0 -- -- 63
2019-04-07 20:00:00 11.7 10 Noroeste 23 Oeste 0 -- -- 51
2019-04-07 19:00:00 13 15 Oeste 32 Oeste 0 -- -- 48
2019-04-07 18:00:00 13.3 17 Oeste 37 Oeste 0 -- -- 45
2019-04-07 17:00:00 12.8 18 Noroeste 35 Oeste 0 -- -- 52
2019-04-07 16:00:00 11.3 24 Oeste 39 Oeste 0 -- -- 58
2019-04-07 15:00:00 11 25 Oeste 45 Oeste 0 -- -- 60
2019-04-07 14:00:00 10.6 22 Oeste 46 Oeste 0 -- -- 61
2019-04-07 13:00:00 9.4 24 Oeste 46 Oeste 0 -- -- 68
2019-04-07 12:00:00 8.3 23 Oeste 39 Oeste 0 -- -- 71
2019-04-07 11:00:00 7.2 27 Oeste 47 Oeste 0 -- -- 79
2019-04-07 10:00:00 5.8 27 Oeste 44 Oeste 0 -- -- 82
2019-04-07 09:00:00 5.1 20 Noroeste 37 Noroeste 0 -- -- 83
2019-04-07 08:00:00 4.7 15 Noroeste 26 Noroeste 0 -- -- 88
2019-04-07 07:00:00 4.6 12 Oeste 31 Oeste 0 -- -- 95
2019-04-07 06:00:00 4.6 14 Oeste 26 Oeste 0.4 -- -- 93
2019-04-07 05:00:00 4.8 12 Noroeste 20 Noroeste 2.4 -- -- 91
2019-04-07 04:00:00 5 8 Oeste 13 Oeste 0.4 -- -- 91
2019-04-07 03:00:00 4.9 7 Nordeste 9 Nordeste 0.2 -- -- 91
2019-04-07 02:00:00 4.9 0 Calma 11 Oeste 0 -- -- 85
2019-04-07 01:00:00 5.5 8 Oeste 13 Oeste 0 -- -- 82
2019-04-07 00:00:00 5.3 2 Sudoeste 9 Este 0 -- -- 80
2019-04-06 23:00:00 6.1 6 Sur 28 Sudoeste 0 -- -- 76
2019-04-06 22:00:00 6.9 18 Sudoeste 36 Sudoeste 0 -- -- 71
2019-04-06 21:00:00 7.2 13 Sudoeste 29 Sudoeste 0 -- -- 74
2019-04-06 20:00:00 8.2 17 Sudoeste 40 Sudoeste 0 -- -- 68
2019-04-06 19:00:00 10.2 15 Sudoeste 25 Sudoeste 0 -- -- 55
2019-04-06 18:00:00 10.8 17 Oeste 31 Sudoeste 0 -- -- 54
2019-04-06 17:00:00 11.8 12 Oeste 24 Oeste 0 -- -- 50
2019-04-06 16:00:00 10.4 24 Oeste 36 Oeste 0 -- -- 61
2019-04-06 15:00:00 11.1 19 Oeste 32 Oeste 0 -- -- 56
2019-04-06 14:00:00 10.7 10 Oeste 30 Oeste 0 -- -- 58
2019-04-06 13:00:00 9.2 21 Oeste 35 Sudoeste 0 -- -- 64
2019-04-06 12:00:00 9.1 23 Oeste 32 Sudoeste 0 -- -- 68
2019-04-06 11:00:00 7.3 17 Oeste 27 Oeste 0 -- -- 71
2019-04-06 10:00:00 5.8 17 Oeste 26 Oeste 0 -- -- 76
2019-04-06 09:00:00 4.7 10 Oeste 27 Oeste 0 -- -- 84
2019-04-06 08:00:00 4.2 16 Noroeste 28 Oeste 0 -- -- 85
2019-04-06 07:00:00 3.2 7 Oeste 11 Oeste 0 -- -- 96
2019-04-06 06:00:00 3.7 6 Oeste 12 Oeste 0 -- -- 97
2019-04-06 05:00:00 3.9 8 Oeste 11 Oeste 0.2 -- -- 97
2019-04-06 04:00:00 4.1 7 Oeste 13 Oeste 0 -- -- 97
2019-04-06 03:00:00 4.4 8 Oeste 12 Oeste 0 -- -- 96
2019-04-06 02:00:00 4.2 6 Oeste 17 Oeste 0.4 -- -- 96
2019-04-06 01:00:00 4.3 11 Oeste 16 Oeste 3.4 -- -- 93
2019-04-06 00:00:00 4 9 Noroeste 24 Oeste 3 -- -- 95
2019-04-05 23:00:00 4.3 21 Oeste 44 Oeste 4.2 -- -- 95
2019-04-05 22:00:00 6.2 13 Sudeste 25 Nordeste 0 -- -- 87
2019-04-05 21:00:00 5.8 14 Este 28 Este 0 -- -- 87
2019-04-05 20:00:00 5.7 15 Este 38 Nordeste 0.2 -- -- 88
2019-04-05 19:00:00 5.9 23 Este 41 Este 1.8 -- -- 90
2019-04-05 18:00:00 6.6 19 Este 29 Nordeste 1.2 -- -- 87
2019-04-05 17:00:00 6.9 18 Este 23 Este 1.8 -- -- 89
2019-04-05 16:00:00 7.5 7 Sudeste 24 Este 3 -- -- 82
2019-04-05 15:00:00 9.9 20 Este 28 Este 0 -- -- 73
2019-04-05 14:00:00 10.4 16 Este 28 Este 0 -- -- 69
2019-04-05 13:00:00 10.7 12 Sudeste 31 Este 0 -- -- 61
2019-04-05 12:00:00 8.7 23 Este 37 Este 0 -- -- 78
2019-04-05 11:00:00 7 16 Este 26 Este 0 -- -- 86
2019-04-05 10:00:00 5.5 14 Este 32 Este 0 -- -- 88
2019-04-05 09:00:00 5.3 22 Este 33 Este 0 -- -- 83
2019-04-05 08:00:00 5.7 21 Este 31 Este 0 -- -- 75
2019-04-05 07:00:00 5.7 22 Este 43 Este 0 -- -- 71
2019-04-05 06:00:00 5.5 27 Este 45 Este 0 -- -- 71
2019-04-05 05:00:00 5.5 33 Este 46 Este 0 -- -- 69
2019-04-05 04:00:00 5.8 30 Este 41 Este 0 -- -- 62
2019-04-05 03:00:00 7.5 23 Este 34 Este 0 -- -- 48
2019-04-05 02:00:00 8 24 Este 33 Este 0 -- -- 42
2019-04-05 01:00:00 8.1 22 Este 33 Este 0 -- -- 42
2019-04-05 00:00:00 8 24 Este 34 Este 0 -- -- 43
2019-04-04 23:00:00 8.1 22 Este 33 Este 0 -- -- 47
2019-04-04 22:00:00 9 23 Este 32 Este 0 -- -- 44
2019-04-04 21:00:00 9.3 15 Este 23 Este 0 -- -- 42
2019-04-04 20:00:00 10.3 16 Este 26 Sudeste 0 -- -- 42
2019-04-04 19:00:00 11.8 9 Sudeste 23 Sudeste 0 -- -- 36
2019-04-04 18:00:00 12.8 10 Sur 23 Sur 0 -- -- 36
2019-04-04 17:00:00 11.3 12 Oeste 28 Oeste 0 -- -- 38
2019-04-04 16:00:00 -- -- -- -- -- -- -- -- --
2019-04-04 15:00:00 10 21 Oeste 44 Oeste 0 -- -- 46
2019-04-04 14:00:00 8.7 18 Oeste 37 Oeste 0 -- -- 52
2019-04-04 13:00:00 7.5 20 Oeste 38 Oeste 0 -- -- 58
2019-04-04 12:00:00 6 24 Oeste 37 Oeste 0 -- -- 61
2019-04-04 11:00:00 4.6 19 Oeste 29 Noroeste 0 -- -- 66
2019-04-04 10:00:00 2.9 12 Sudoeste 14 Oeste 0 -- -- 75
2019-04-04 09:00:00 0.8 5 Oeste 15 Noroeste 0 -- -- 81
2019-04-04 08:00:00 -0.3 9 Oeste 11 Oeste 0 -- -- 83
2019-04-04 07:00:00 0.2 8 Oeste 18 Oeste 0 -- -- 81
2019-04-04 06:00:00 0.9 13 Noroeste 18 Oeste 0 -- -- 81
2019-04-04 05:00:00 0.2 11 Oeste 19 Oeste 0 -- -- 81
2019-04-04 04:00:00 0.6 6 Oeste 21 Oeste 0 -- -- 79
2019-04-04 03:00:00 1.9 14 Oeste 22 Noroeste 0 -- -- 74
2019-04-04 02:00:00 2.1 12 Noroeste 24 Oeste 0 -- -- 72
2019-04-04 01:00:00 2.6 15 Noroeste 30 Noroeste 0 -- -- 69
2019-04-04 00:00:00 3.5 19 Noroeste 35 Noroeste 0 -- -- 63
2019-04-03 23:00:00 4 17 Noroeste 32 Oeste 0 -- -- 62
2019-04-03 22:00:00 3.5 11 Oeste 30 Noroeste 0 -- -- 87
2019-04-03 21:00:00 3.7 8 Noroeste 23 Oeste 0 -- -- 90
2019-04-03 20:00:00 5.4 17 Oeste 26 Oeste 0 -- -- 78
2019-04-03 19:00:00 5 21 Noroeste 40 Noroeste 0.4 -- -- 78
2019-04-03 18:00:00 7.2 21 Oeste 30 Noroeste 0 -- -- 63
2019-04-03 17:00:00 7.3 21 Oeste 38 Oeste 0 -- -- 76
2019-04-03 16:00:00 7.7 18 Oeste 24 Oeste 0 -- -- 82
2019-04-03 15:00:00 6.9 9 Noroeste 24 Oeste 0 -- -- 81
2019-04-03 14:00:00 6.1 11 Noroeste 21 Noroeste 0.2 -- -- 86
2019-04-03 13:00:00 6.4 10 Oeste 21 Noroeste 0 -- -- 89
2019-04-03 12:00:00 5.9 12 Noroeste 21 Noroeste 0.2 -- -- 87
2019-04-03 11:00:00 6.2 9 Oeste 19 Oeste 0.2 -- -- 93
2019-04-03 10:00:00 6.2 10 Oeste 17 Oeste 0.2 -- -- 92
2019-04-03 09:00:00 6.9 8 Oeste 20 Oeste 0 -- -- 85
2019-04-03 08:00:00 -- -- -- -- -- -- -- -- --
2019-04-03 07:00:00 -- -- -- -- -- -- -- -- --
2019-04-03 06:00:00 -- -- -- -- -- -- -- -- --
2019-04-03 05:00:00 -- -- -- -- -- -- -- -- --
2019-04-03 04:00:00 -- -- -- -- -- -- -- -- --
2019-04-03 03:00:00 -- -- -- -- -- -- -- -- --
2019-04-03 02:00:00 -- -- -- -- -- -- -- -- --
2019-04-03 01:00:00 7.9 5 Oeste 19 Oeste 0 -- -- 79
2019-04-03 00:00:00 8.8 0 Calma 9 Oeste 0 -- -- 77
2019-04-02 23:00:00 10.3 3 Oeste 8 Este 0 -- -- 73
2019-04-02 22:00:00 10.8 4 Este 11 Oeste 0 -- -- 69
2019-04-02 21:00:00 12.1 6 Oeste 16 Oeste 0 -- -- 67
2019-04-02 20:00:00 14.7 10 Oeste 23 Oeste 0 -- -- 49
2019-04-02 19:00:00 15.3 15 Oeste 33 Oeste 0 -- -- 45
2019-04-02 18:00:00 16.8 17 Oeste 37 Oeste 0 -- -- 41
2019-04-02 17:00:00 16.8 24 Oeste 33 Oeste 0 -- -- 45
2019-04-02 16:00:00 16.4 21 Oeste 36 Noroeste 0 -- -- 51
2019-04-02 15:00:00 14.6 18 Oeste 32 Oeste 0 -- -- 61
2019-04-02 14:00:00 14.4 18 Oeste 32 Oeste 0 -- -- 69
2019-04-02 13:00:00 12.3 18 Oeste 25 Oeste 0 -- -- 87
2019-04-02 12:00:00 9.7 14 Noroeste 22 Oeste 0 -- -- 97
2019-04-02 11:00:00 9.2 13 Oeste 21 Oeste 0 -- -- 97
2019-04-02 10:00:00 8.5 6 Sudoeste 14 Oeste 0 -- -- 97
2019-04-02 09:00:00 7.4 0 Calma 6 Nordeste 0 -- -- 95
2019-04-02 08:00:00 6.7 0 Calma 8 Este 0 -- -- 96
2019-04-02 07:00:00 6.5 8 Nordeste 10 Nordeste 0 -- -- 95
2019-04-02 06:00:00 7.6 8 Nordeste 12 Nordeste 0 -- -- 95
2019-04-02 05:00:00 7 9 Nordeste 12 Nordeste 0 -- -- 95
2019-04-02 04:00:00 7.3 10 Nordeste 14 Nordeste 0 -- -- 93
2019-04-02 03:00:00 8 10 Nordeste 13 Nordeste 0 -- -- 93
2019-04-02 02:00:00 9.2 7 Nordeste 9 Nordeste 0 -- -- 91
2019-04-02 01:00:00 9.8 0 Calma 10 Nordeste 0 -- -- 89
2019-04-02 00:00:00 9.7 4 Este 14 Nordeste 0.2 -- -- 91
2019-04-01 23:00:00 10.3 6 Nordeste 11 Nordeste 0.2 -- -- 89
2019-04-01 22:00:00 11.2 4 Nordeste 9 Nordeste 0.2 -- -- 83
2019-04-01 21:00:00 11.7 6 Este 12 Sudeste 0 -- -- 81
2019-04-01 20:00:00 12.6 8 Sudeste 16 Sur 0 -- -- 77
2019-04-01 19:00:00 14.5 9 Sudeste 21 Este 0 -- -- 69
2019-04-01 18:00:00 14.2 9 Sudeste 18 Este 0 -- -- 67
2019-04-01 17:00:00 14.4 11 Este 18 Este 0 -- -- 68
2019-04-01 16:00:00 13.8 11 Este 18 Este 0 -- -- 70
2019-04-01 15:00:00 13.4 8 Este 21 Este 0 -- -- 67
2019-04-01 14:00:00 12.3 10 Este 22 Este 0 -- -- 78
2019-04-01 13:00:00 10.8 9 Este 21 Este 0 -- -- 82
2019-04-01 12:00:00 10.2 10 Este 18 Este 0 -- -- 84
2019-04-01 11:00:00 9.2 9 Este 17 Este 0 -- -- 89
2019-04-01 10:00:00 8.5 4 Este 8 Este 0.2 -- -- 94
2019-04-01 09:00:00 7.4 2 Nordeste 5 Este 0.4 -- -- 95
2019-04-01 08:00:00 7.1 4 Este 8 Este 1.2 -- -- 95
2019-04-01 07:00:00 7 7 Este 9 Nordeste 0.4 -- -- 95
2019-04-01 06:00:00 6.9 8 Nordeste 10 Este 0.6 -- -- 94
2019-04-01 05:00:00 6.9 6 Nordeste 9 Nordeste 0.6 -- -- 93
2019-04-01 04:00:00 6.9 5 Este 9 Este 1 -- -- 93
2019-04-01 03:00:00 6.9 3 Este 10 Este 1 -- -- 92
2019-04-01 02:00:00 7.1 2 Este 5 Este 1.6 -- -- 91
2019-04-01 01:00:00 7.2 0 Calma 8 Oeste 0.4 -- -- 87
2019-04-01 00:00:00 7.3 8 Oeste 11 Oeste 0 -- -- 87
2019-03-31 23:00:00 7.5 7 Oeste 16 Oeste 0 -- -- 82
2019-03-31 22:00:00 8.5 3 Oeste 8 Oeste 0 -- -- 79
2019-03-31 21:00:00 9.3 3 Sudoeste 7 Este 0 -- -- 73
2019-03-31 20:00:00 10.1 7 Sur 12 Sur 0 -- -- 70
2019-03-31 19:00:00 11.3 6 Sudeste 19 Sudeste 0 -- -- 65
2019-03-31 18:00:00 11.3 7 Sudeste 16 Sudeste 0 -- -- 65
2019-03-31 17:00:00 11.3 9 Sudeste 18 Sudeste 0 -- -- 63
2019-03-31 16:00:00 11.9 11 Sudeste 25 Este 0 -- -- 64
2019-03-31 15:00:00 12.6 15 Este 32 Este 0 -- -- 55
2019-03-31 14:00:00 12.1 19 Este 30 Este 0 -- -- 57
2019-03-31 13:00:00 11.6 15 Este 24 Sudeste 0 -- -- 64
2019-03-31 12:00:00 10.6 16 Este 26 Este 0 -- -- 66
2019-03-31 11:00:00 10.3 14 Este 24 Sudeste 0 -- -- 69
2019-03-31 10:00:00 8.5 4 Sudeste 9 Nordeste 0 -- -- 79
2019-03-31 09:00:00 4.8 8 Este 11 Nordeste 0 -- -- 91
2019-03-31 08:00:00 5 8 Nordeste 9 Nordeste 0 -- -- 89
2019-03-31 07:00:00 5.3 7 Este 12 Este 0 -- -- 89
2019-03-31 06:00:00 5.7 6 Nordeste 30 Este 0 -- -- 88
2019-03-31 05:00:00 6.8 16 Nordeste 25 Este 0 -- -- 85
2019-03-31 03:00:00 6.8 24 Este 35 Este 0 -- -- 82
2019-03-31 01:00:00 7.6 23 Este 33 Este 0 -- -- 75
2019-03-31 00:00:00 8.9 16 Este 26 Este 0 -- -- 56
2019-03-30 23:00:00 9.8 14 Este 22 Este 0 -- -- 54
2019-03-30 22:00:00 10.3 16 Este 23 Este 0 -- -- 52
2019-03-30 21:00:00 11.4 14 Este 18 Este 0 -- -- 45
2019-03-30 20:00:00 12.9 12 Este 26 Este 0 -- -- 41
2019-03-30 19:00:00 15.3 21 Este 30 Este 0 -- -- 36
2019-03-30 18:00:00 16.9 12 Sudeste 26 Este 0 -- -- 34
2019-03-30 17:00:00 17.6 14 Sudeste 30 Este 0 -- -- 34
2019-03-30 16:00:00 17.5 15 Este 30 Sudeste 0 -- -- 35
2019-03-30 15:00:00 17.8 11 Sudeste 35 Este 0 -- -- 37
2019-03-30 14:00:00 17.2 10 Sudeste 31 Este 0 -- -- 38
2019-03-30 13:00:00 16.3 13 Este 29 Este 0 -- -- 42
2019-03-30 12:00:00 14.7 14 Este 30 Sudeste 0 -- -- 46
2019-03-30 11:00:00 12.8 24 Este 32 Este 0 -- -- 52
2019-03-30 10:00:00 11.3 15 Sudeste 33 Este 0 -- -- 60
2019-03-30 09:00:00 9.2 22 Este 35 Este 0 -- -- 71
2019-03-30 08:00:00 6.4 15 Este 29 Este 0 -- -- 79
2019-03-30 07:00:00 5.3 25 Este 30 Este 0 -- -- 81
2019-03-30 06:00:00 5.5 18 Este 26 Este 0 -- -- 78
2019-03-30 05:00:00 5.8 17 Este 27 Este 0 -- -- 74
2019-03-30 04:00:00 5.9 15 Este 45 Este 0 -- -- 72
2019-03-30 03:00:00 6.2 31 Este 41 Este 0 -- -- 69
2019-03-30 02:00:00 6.4 30 Este 41 Este 0 -- -- 66
2019-03-30 01:00:00 7.2 28 Este 36 Este 0 -- -- 60
2019-03-30 00:00:00 8.6 27 Este 39 Este 0 -- -- 57
2019-03-29 23:00:00 9.7 24 Este 38 Este 0 -- -- 53
2019-03-29 22:00:00 10.8 24 Este 34 Este 0 -- -- 49
2019-03-29 21:00:00 11.6 24 Este 34 Este 0 -- -- 50
2019-03-29 20:00:00 13.3 20 Este 42 Este 0 -- -- 45
2019-03-29 19:00:00 15 26 Este 48 Este 0 -- -- 40
2019-03-29 18:00:00 16.1 33 Este 51 Este 0 -- -- 36
2019-03-29 17:00:00 17.5 31 Este 45 Este 0 -- -- 32
2019-03-29 16:00:00 18.3 22 Este 42 Este 0 -- -- 27
2019-03-29 15:00:00 18.3 20 Sudeste 41 Este 0 -- -- 28
2019-03-29 14:00:00 17.8 17 Sudeste 37 Este 0 -- -- 30
2019-03-29 13:00:00 16.7 22 Este 36 Este 0 -- -- 34
2019-03-29 12:00:00 15.5 21 Este 37 Este 0 -- -- 36
2019-03-29 11:00:00 13.7 26 Este 38 Este 0 -- -- 42
2019-03-29 10:00:00 11.7 28 Este 38 Este 0 -- -- 43
2019-03-29 09:00:00 9.8 23 Este 32 Este 0 -- -- 53
2019-03-29 08:00:00 7.2 20 Este 27 Este 0 -- -- 60
2019-03-29 07:00:00 5.7 21 Este 27 Este 0 -- -- 62
2019-03-29 06:00:00 6.1 19 Este 30 Este 0 -- -- 60
2019-03-29 05:00:00 5.9 16 Este 20 Este 0 -- -- 60
2019-03-29 04:00:00 6.3 16 Este 23 Este 0 -- -- 58
2019-03-29 03:00:00 6.6 14 Este 21 Este 0 -- -- 59
2019-03-29 02:00:00 7 10 Este 16 Este 0 -- -- 61
2019-03-29 01:00:00 8.1 11 Este 16 Este 0 -- -- 62
2019-03-29 00:00:00 9.3 2 Norte 13 Nordeste 0 -- -- 57
2019-03-28 23:00:00 9.6 9 Nordeste 16 Este 0 -- -- 55
2019-03-28 22:00:00 9.4 9 Nordeste 18 Nordeste 0 -- -- 57
2019-03-28 21:00:00 10.6 9 Nordeste 13 Este 0 -- -- 52
2019-03-28 20:00:00 12.8 8 Nordeste 12 Este 0 -- -- 44
2019-03-28 19:00:00 16.1 6 Oeste 16 Oeste 0 -- -- 37
2019-03-28 18:00:00 17.2 11 Oeste 18 Sudoeste 0 -- -- 36
2019-03-28 17:00:00 -- 13 Oeste 24 Oeste 0 -- -- --
2019-03-28 16:00:00 16.9 12 Sudoeste 28 Oeste 0 -- -- 36
2019-03-28 15:00:00 16.3 10 Sudoeste 27 Sudoeste 0 -- -- 41
2019-03-28 14:00:00 15 15 Sudoeste 25 Oeste 0 -- -- 44
2019-03-28 13:00:00 13.6 14 Sudoeste 30 Oeste 0 -- -- 47
2019-03-28 12:00:00 12.3 18 Oeste 28 Sudoeste 0 -- -- 52
2019-03-28 11:00:00 10.9 19 Oeste 24 Oeste 0 -- -- 57
2019-03-28 10:00:00 8.4 15 Oeste 21 Sudoeste 0 -- -- 69
2019-03-28 09:00:00 4.8 7 Oeste 11 Noroeste 0 -- -- 81
2019-03-28 08:00:00 2.1 4 Este 8 Este 0 -- -- 87
2019-03-28 07:00:00 1.8 6 Nordeste 8 Nordeste 0 -- -- 87
2019-03-28 06:00:00 2.2 3 Este 6 Oeste 0 -- -- 83
2019-03-28 05:00:00 3.2 4 Oeste 10 Oeste 0 -- -- 80
2019-03-28 04:00:00 4.1 4 Sudoeste 22 Oeste 0 -- -- 76
2019-03-28 03:00:00 4.4 9 Oeste 24 Oeste 0 -- -- 74
2019-03-28 02:00:00 5.7 14 Oeste 26 Noroeste 0 -- -- 69
2019-03-28 01:00:00 6.1 16 Oeste 31 Oeste 0 -- -- 65
2019-03-28 00:00:00 6.6 19 Oeste 28 Oeste 0 -- -- 62
2019-03-27 23:00:00 6.3 9 Oeste 17 Oeste 0 -- -- 59
2019-03-27 22:00:00 8.1 18 Oeste 26 Oeste 0 -- -- 53
2019-03-27 21:00:00 8.4 13 Oeste 27 Oeste 0 -- -- 51
2019-03-27 20:00:00 12.2 15 Oeste 29 Noroeste 0 -- -- 38
2019-03-27 19:00:00 16.2 17 Oeste 32 Oeste 0 -- -- 26
2019-03-27 18:00:00 17.9 23 Oeste 35 Oeste 0 -- -- 22
2019-03-27 17:00:00 18.4 20 Oeste 34 Oeste 0 -- -- 22
2019-03-27 16:00:00 -- -- -- -- -- -- -- -- --
2019-03-27 15:00:00 17.2 20 Oeste 30 Oeste 0 -- -- 25
2019-03-27 14:00:00 15.3 20 Oeste 33 Oeste 0 -- -- 30
2019-03-27 13:00:00 13.7 15 Oeste 27 Sudoeste 0 -- -- 33
2019-03-27 12:00:00 11.8 17 Oeste 25 Oeste 0 -- -- 43
2019-03-27 11:00:00 10 16 Oeste 22 Oeste 0 -- -- 48
2019-03-27 10:00:00 8.3 13 Oeste 21 Oeste 0 -- -- 53
2019-03-27 09:00:00 5.4 9 Oeste 12 Oeste 0 -- -- 66
2019-03-27 08:00:00 1.7 8 Este 11 Este 0 -- -- 85
2019-03-27 07:00:00 2.2 8 Nordeste 10 Este 0 -- -- 87
2019-03-27 06:00:00 2.1 4 Este 9 Oeste 0 -- -- 88
2019-03-27 05:00:00 2.3 5 Nordeste 13 Este 0 -- -- 88
2019-03-27 04:00:00 0.9 10 Nordeste 14 Nordeste 0 -- -- 78
2019-03-27 03:00:00 3.1 8 Nordeste 12 Nordeste 0 -- -- 68
2019-03-27 02:00:00 3.5 4 Este 8 Este 0 -- -- 67
2019-03-27 01:00:00 3.8 0 Calma 5 Este 0 -- -- 67
2019-03-27 00:00:00 5.1 3 Noroeste 12 Oeste 0 -- -- 63